Monday, January 26, 2015, 5:24 PM EST

KW99, Petersburg, Grant County Airport

Location: Petersburg, WV, United States Lat: 38.983
Local Time: 5:24 PM EST (22:24 GMT) Lon: -79.133
Time Zone: US/Eastern Elev: 961 ft

Show me the last for .
Show Decoded

2015-01-26 16:55 METAR KW99 262155Z AUTO 00000KT 5SM -SN OVC017 00/M01 A2971 RMK AO2 T10021006 =
2015-01-26 16:30 METAR KW99 262130Z AUTO 00000KT 1 3/4SM -SN OVC017 00/00 A2971 RMK AO2 T10021004
                 =
2015-01-26 16:10 METAR KW99 262110Z AUTO 00000KT 1 3/4SM -SN OVC017 00/00 A2971 RMK AO2 T10021005
                 =
2015-01-26 15:55 METAR KW99 262055Z AUTO 00000KT 2 1/2SM -SN OVC015 00/00 A2971 RMK AO2 P0001
                 60013 T10021005 =
2015-01-26 15:35 METAR KW99 262035Z AUTO 02003KT 5SM -SN OVC013 00/M01 A2970 RMK AO2 P0001
                 T10031007 =
2015-01-26 15:15 METAR KW99 262015Z AUTO 01003KT 7SM OVC013 00/M01 A2969 RMK AO2 P0001 T10041009
                 =
2015-01-26 14:55 METAR KW99 261955Z AUTO 02004KT 7SM OVC015 00/M01 A2969 RMK AO2 P0007 T10051010
                 =
2015-01-26 14:35 METAR KW99 261935Z AUTO 03004KT 4SM -SN SCT007 OVC017 00/M01 A2969 RMK AO2 P0006
                 T10031007 =
2015-01-26 14:15 METAR KW99 261915Z AUTO 00000KT 2SM -SN SCT007 OVC017 00/00 A2969 RMK AO2 P0003
                 T10021003 =
2015-01-26 13:35 METAR KW99 261835Z AUTO 00000KT 1SM -SN BKN010 OVC017 00/00 A2971 RMK AO2 P0003
                 T00001001 =
2015-01-26 13:00 METAR KW99 261800Z AUTO 35003KT 1SM -SN OVC017 00/00 A2972 RMK AO2 T00010000 =
2015-01-26 12:30 METAR KW99 261730Z AUTO 00000KT 2SM -SN OVC013 00/00 A2973 RMK AO2 VIS 1 3/4V2
                 1/2 T00010000 =
2015-01-26 12:15 METAR KW99 261715Z AUTO 34003KT 2 1/2SM -SN OVC011 00/00 A2974 RMK AO2 T00010000
                 =
2015-01-26 11:50 METAR KW99 261650Z AUTO 00000KT 2SM -SN OVC013 00/00 A2975 RMK AO2 T00010000 =
2015-01-26 11:35 METAR KW99 261635Z AUTO 35003KT 1 1/2SM -SN OVC013 00/00 A2975 RMK AO2 T00010000
                 =
2015-01-26 11:15 METAR KW99 261615Z AUTO 36003KT 2SM -SN OVC013 00/00 A2975 RMK AO2 T00010000 =
2015-01-26 10:55 METAR KW99 261555Z AUTO 01004KT 2SM -SN OVC013 00/00 A2976 RMK AO2 T00020000 =
2015-01-26 10:35 METAR KW99 261535Z AUTO 00000KT 3SM -SN OVC013 00/00 A2976 RMK AO2 T00021001 =
2015-01-26 10:10 METAR KW99 261510Z AUTO 01004KT 1 3/4SM -SN OVC015 01/00 A2975 RMK AO2 LTG DSNT
                 SE T00050000 =
2015-01-26 09:55 METAR KW99 261455Z AUTO 02005KT 1 3/4SM -SN OVC015 01/00 A2975 RMK AO2 T00060004
                 =
2015-01-26 09:30 METAR KW99 261430Z AUTO 34006KT 1SM -SN OVC017 01/01 A2974 RMK AO2 T00060006 =
2015-01-26 09:10 METAR KW99 261410Z AUTO 01004KT 1SM -SN BKN003 BKN009 OVC017 01/01 A2974 RMK AO2
                 T00060006 =
2015-01-26 08:55 METAR KW99 261355Z AUTO 00000KT 3/4SM -SN OVC003 01/01 A2974 RMK AO2 T00100010 =
2015-01-26 08:35 METAR KW99 261335Z AUTO 00000KT 1/2SM SN OVC003 01/01 A2974 RMK AO2 T00080008 =
2015-01-26 07:55 METAR KW99 261255Z AUTO 00000KT 1SM SN BKN003 OVC006 01/01 A2973 RMK AO2
                 T00070007 =
2015-01-26 07:35 METAR KW99 261235Z AUTO 00000KT 1 1/4SM -SN OVC005 01/01 A2973 RMK AO2 T00080008
                 =
2015-01-26 07:15 METAR KW99 261215Z AUTO 00000KT 1 1/2SM -SN OVC005 01/01 A2973 RMK AO2 T00080008
                 =
2015-01-26 06:55 METAR KW99 261155Z AUTO 26003KT 1 1/2SM -SN OVC005 01/01 A2973 RMK AO2 60006
                 7//// T00090009 10030 20008 =
2015-01-26 06:35 METAR KW99 261135Z AUTO 00000KT 1 1/2SM -SN BKN003 OVC009 01/01 A2972 RMK AO2
                 T00090009 =
2015-01-26 06:15 METAR KW99 261115Z AUTO 00000KT 1 1/2SM -SN BKN005 OVC012 01/01 A2972 RMK AO2
                 T00100010 =
2015-01-26 05:55 METAR KW99 261055Z AUTO 00000KT 1 1/4SM -SN OVC005 01/01 A2972 RMK AO2 T00100010
                 =
2015-01-26 05:35 METAR KW99 261035Z AUTO 00000KT 1 3/4SM -SN BKN005 OVC010 01/01 A2972 RMK AO2
                 T00100010 =
2015-01-26 05:15 METAR KW99 261015Z AUTO 30003KT 1 3/4SM -SN BKN005 OVC012 01/01 A2972 RMK AO2
                 T00100010 =
2015-01-26 04:55 METAR KW99 260955Z AUTO 30003KT 1SM -SN BKN005 OVC012 01/01 A2972 RMK AO2 VIS
                 1/4V2 1/2 P0001 T00130013 =
2015-01-26 04:35 METAR KW99 260935Z AUTO 29004KT 4SM -SN SCT005 OVC012 02/02 A2972 RMK AO2
                 T00170017 =
2015-01-26 04:15 METAR KW99 260915Z AUTO 28003KT 4SM UP BKN005 OVC010 02/02 A2973 RMK AO2
                 T00180018 =
2015-01-26 03:55 METAR KW99 260855Z AUTO 31003KT 4SM UP BKN005 OVC010 02/02 A2973 RMK AO2 P0001
                 60005 T00200020 =
2015-01-26 03:35 METAR KW99 260835Z AUTO 00000KT 5SM UP BKN005 OVC010 02/02 A2974 RMK AO2
                 T00230023 =
2015-01-26 03:15 METAR KW99 260815Z AUTO 33004KT 5SM UP BKN005 OVC010 02/02 A2974 RMK AO2
                 T00230023 =
2015-01-26 02:55 METAR KW99 260755Z AUTO 00000KT 4SM UP BKN005 OVC011 03/03 A2974 RMK AO2 P0002
                 T00270027 =
2015-01-26 02:35 METAR KW99 260735Z AUTO 35003KT 4SM UP SCT005 OVC011 03/03 A2975 RMK AO2 P0001
                 T00270027 =
2015-01-26 02:15 METAR KW99 260715Z AUTO 35003KT 4SM UP OVC011 03/03 A2975 RMK AO2 T00280028 =
2015-01-26 01:55 METAR KW99 260655Z AUTO 00000KT 4SM UP OVC013 03/03 A2976 RMK AO2 P0002
                 T00300030 =
2015-01-26 01:35 METAR KW99 260635Z AUTO 00000KT 3SM UP OVC011 03/03 A2976 RMK AO2 P0001
                 T00290029 =
2015-01-26 00:55 METAR KW99 260555Z AUTO 00000KT 2 1/2SM UP BKN016 OVC025 03/03 A2977 RMK AO2
                 P0001 60002 T00260026 10045 20016 400880016 =
2015-01-26 00:30 METAR KW99 260530Z AUTO 00000KT 4SM UP OVC025 02/02 A2978 RMK AO2 P0001
                 T00220022 =
2015-01-26 00:15 METAR KW99 260515Z AUTO 00000KT 4SM UP OVC027 02/02 A2979 RMK AO2 T00230023 PNO
                 =
2015-01-25 23:55 METAR KW99 260455Z AUTO 00000KT 4SM UP OVC027 02/02 A2979 RMK AO2 P0001
                 T00220022 =
2015-01-25 23:35 METAR KW99 260435Z AUTO 00000KT 4SM UP OVC029 02/02 A2980 RMK AO2 T00190019 =
2015-01-25 23:15 METAR KW99 260415Z AUTO 00000KT 4SM UP BKN029 OVC034 02/02 A2980 RMK AO2
                 T00190019 =
2015-01-25 22:55 METAR KW99 260355Z AUTO 00000KT 5SM UP BKN029 OVC042 02/02 A2980 RMK AO2
                 T00170017 =
2015-01-25 22:35 METAR KW99 260335Z AUTO 28003KT 7SM UP BKN044 BKN050 OVC075 02/02 A2980 RMK AO2
                 T00190017 =
2015-01-25 22:15 METAR KW99 260315Z AUTO 00000KT 7SM SCT035 BKN044 OVC100 02/02 A2980 RMK AO2
                 T00200018 =
2015-01-25 21:50 METAR KW99 260250Z AUTO 00000KT 7SM SCT044 BKN080 OVC120 02/02 A2980 RMK AO2
                 T00240018 =
2015-01-25 21:35 METAR KW99 260235Z AUTO 00000KT 10SM SCT080 OVC110 03/02 A2980 RMK AO2 T00250018
                 =
2015-01-25 21:15 METAR KW99 260215Z AUTO 00000KT 10SM OVC110 03/02 A2980 RMK AO2 T00310017 =
2015-01-25 20:55 METAR KW99 260155Z AUTO 31003KT 10SM SCT085 BKN120 03/02 A2980 RMK AO2 T00300017
                 =
2015-01-25 20:30 METAR KW99 260130Z AUTO 28004KT 10SM SCT085 SCT120 03/01 A2981 RMK AO2 T00290007
                 =
2015-01-25 20:10 METAR KW99 260110Z AUTO 00000KT 10SM SCT080 SCT120 03/00 A2980 RMK AO2 T00320004
                 =
2015-01-25 19:55 METAR KW99 260055Z AUTO 00000KT 10SM OVC080 04/00 A2981 RMK AO2 T00400004 =
2015-01-25 19:35 METAR KW99 260035Z AUTO 00000KT 10SM OVC080 03/00 A2980 RMK AO2 T00331001 =
2015-01-25 19:15 METAR KW99 260015Z AUTO 00000KT 10SM OVC070 04/00 A2980 RMK AO2 T00430000 =
2015-01-25 18:55 METAR KW99 252355Z AUTO 00000KT 10SM BKN070 04/00 A2980 RMK AO2 6//// T00401003
                 10088 20040 =
2015-01-25 18:30 METAR KW99 252330Z AUTO 00000KT 10SM SCT120 05/00 A2979 RMK AO2 T00481004 =
2015-01-25 18:20 METAR KW99 252320Z AUTO 00000KT 10SM SCT120 06/00 A2978 RMK AO2 T00571002 =
2015-01-25 17:55 METAR KW99 252255Z AUTO 13003KT 10SM SCT110 06/00 A2978 RMK AO2 T00551004 =
2015-01-25 17:30 METAR KW99 252230Z AUTO 00000KT 10SM SCT060 SCT070 OVC090 07/00 A2978 RMK AO2
                 T00660000 PNO =

Support USWX by starting your Amazon purchase here.